Terminal Aerodrome Forecast
Issued by NWS Tulsa, OK

Home | Current Version | Previous Version | Text Only | Print | Product List | Glossary On
Versions: 1 2 3 4 5 6 7 8 9 10 11 12 13 14 15
000
FTUS44 KTSA 301700
TAFFSM
TAF
KFSM 301720Z 3018/3118 00000KT P6SM SKC
     FM302100 29009G17KT P6SM SKC
     FM310000 31007KT P6SM SKC
     FM311500 34010G17KT P6SM SKC=

USA.gov is the U.S. government's official web portal to all federal, state and local government web resources and services.